sensor_id;sensor_type;location;lat;lon;timestamp;temperature;humidity
34877;DHT22;21086;44.780;17.194;2022-11-15T00:01:09;9.60;99.90
34877;DHT22;21086;44.780;17.194;2022-11-15T00:03:36;9.60;99.90
34877;DHT22;21086;44.780;17.194;2022-11-15T00:06:04;9.50;99.90
34877;DHT22;21086;44.780;17.194;2022-11-15T00:08:32;9.50;99.90
34877;DHT22;21086;44.780;17.194;2022-11-15T00:11:00;9.70;99.90
34877;DHT22;21086;44.780;17.194;2022-11-15T00:13:29;9.60;99.90
34877;DHT22;21086;44.780;17.194;2022-11-15T00:15:58;9.70;99.90
34877;DHT22;21086;44.780;17.194;2022-11-15T00:18:26;9.70;99.90
34877;DHT22;21086;44.780;17.194;2022-11-15T00:20:55;9.50;99.90
34877;DHT22;21086;44.780;17.194;2022-11-15T00:23:22;9.50;99.90
34877;DHT22;21086;44.780;17.194;2022-11-15T00:25:57;9.50;99.90
34877;DHT22;21086;44.780;17.194;2022-11-15T00:28:25;9.60;99.90
34877;DHT22;21086;44.780;17.194;2022-11-15T00:30:52;9.60;99.90
34877;DHT22;21086;44.780;17.194;2022-11-15T00:33:19;9.60;99.90
34877;DHT22;21086;44.780;17.194;2022-11-15T00:35:46;9.60;99.90
34877;DHT22;21086;44.780;17.194;2022-11-15T00:38:13;9.50;99.90
34877;DHT22;21086;44.780;17.194;2022-11-15T00:40:41;9.60;99.90
34877;DHT22;21086;44.780;17.194;2022-11-15T00:43:08;9.60;99.90
34877;DHT22;21086;44.780;17.194;2022-11-15T00:45:35;9.70;99.90
34877;DHT22;21086;44.780;17.194;2022-11-15T00:48:02;9.80;99.90
34877;DHT22;21086;44.780;17.194;2022-11-15T00:50:30;9.90;99.90
34877;DHT22;21086;44.780;17.194;2022-11-15T00:52:57;10.00;99.90
34877;DHT22;21086;44.780;17.194;2022-11-15T00:55:24;10.00;99.90
34877;DHT22;21086;44.780;17.194;2022-11-15T00:57:52;9.90;99.90
34877;DHT22;21086;44.780;17.194;2022-11-15T01:00:20;9.90;99.90
34877;DHT22;21086;44.780;17.194;2022-11-15T01:02:48;9.90;99.90
34877;DHT22;21086;44.780;17.194;2022-11-15T01:05:16;9.90;99.90
34877;DHT22;21086;44.780;17.194;2022-11-15T01:07:43;9.80;99.90
34877;DHT22;21086;44.780;17.194;2022-11-15T01:10:11;10.70;99.90
34877;DHT22;21086;44.780;17.194;2022-11-15T01:12:38;9.80;99.90
34877;DHT22;21086;44.780;17.194;2022-11-15T01:15:06;9.80;99.90
34877;DHT22;21086;44.780;17.194;2022-11-15T01:17:34;9.80;99.90
34877;DHT22;21086;44.780;17.194;2022-11-15T01:20:02;9.70;99.90
34877;DHT22;21086;44.780;17.194;2022-11-15T01:22:33;9.90;99.90
34877;DHT22;21086;44.780;17.194;2022-11-15T01:25:00;9.90;99.90
34877;DHT22;21086;44.780;17.194;2022-11-15T01:27:27;9.90;99.90
34877;DHT22;21086;44.780;17.194;2022-11-15T01:29:55;9.90;99.90
34877;DHT22;21086;44.780;17.194;2022-11-15T01:32:23;10.00;99.90
34877;DHT22;21086;44.780;17.194;2022-11-15T01:34:51;10.10;99.90
34877;DHT22;21086;44.780;17.194;2022-11-15T01:37:18;10.10;99.90
34877;DHT22;21086;44.780;17.194;2022-11-15T01:39:47;10.20;99.90
34877;DHT22;21086;44.780;17.194;2022-11-15T01:42:14;10.20;99.90
34877;DHT22;21086;44.780;17.194;2022-11-15T01:44:51;10.30;99.90
34877;DHT22;21086;44.780;17.194;2022-11-15T01:47:28;10.20;99.90
34877;DHT22;21086;44.780;17.194;2022-11-15T01:52:27;10.30;99.90
34877;DHT22;21086;44.780;17.194;2022-11-15T01:55:08;10.20;99.90
34877;DHT22;21086;44.780;17.194;2022-11-15T01:57:36;10.10;99.90
34877;DHT22;21086;44.780;17.194;2022-11-15T02:00:05;10.10;99.90
34877;DHT22;21086;44.780;17.194;2022-11-15T02:02:33;10.10;99.90
34877;DHT22;21086;44.780;17.194;2022-11-15T02:05:00;10.10;99.90
34877;DHT22;21086;44.780;17.194;2022-11-15T02:07:28;10.20;99.90
34877;DHT22;21086;44.780;17.194;2022-11-15T02:09:59;10.20;99.90
34877;DHT22;21086;44.780;17.194;2022-11-15T02:12:28;10.20;99.90
34877;DHT22;21086;44.780;17.194;2022-11-15T02:14:58;10.20;99.90
34877;DHT22;21086;44.780;17.194;2022-11-15T02:22:51;10.20;99.90
34877;DHT22;21086;44.780;17.194;2022-11-15T02:25:36;10.20;99.90
34877;DHT22;21086;44.780;17.194;2022-11-15T02:36:08;10.30;99.90
34877;DHT22;21086;44.780;17.194;2022-11-15T02:44:02;10.10;99.90
34877;DHT22;21086;44.780;17.194;2022-11-15T02:46:42;10.10;99.90
34877;DHT22;21086;44.780;17.194;2022-11-15T02:49:33;10.20;99.90
34877;DHT22;21086;44.780;17.194;2022-11-15T02:52:01;10.10;99.90
34877;DHT22;21086;44.780;17.194;2022-11-15T02:54:32;10.00;99.90
34877;DHT22;21086;44.780;17.194;2022-11-15T02:57:04;10.20;99.90
34877;DHT22;21086;44.780;17.194;2022-11-15T02:59:57;10.10;99.90
34877;DHT22;21086;44.780;17.194;2022-11-15T03:11:12;9.90;99.90
34877;DHT22;21086;44.780;17.194;2022-11-15T03:14:06;9.70;99.90
34877;DHT22;21086;44.780;17.194;2022-11-15T03:22:14;9.20;99.90
34877;DHT22;21086;44.780;17.194;2022-11-15T03:24:44;9.20;99.90
34877;DHT22;21086;44.780;17.194;2022-11-15T03:27:15;9.20;99.90
34877;DHT22;21086;44.780;17.194;2022-11-15T03:29:47;9.30;99.90
34877;DHT22;21086;44.780;17.194;2022-11-15T03:32:23;9.40;99.90
34877;DHT22;21086;44.780;17.194;2022-11-15T03:35:08;9.40;99.90
34877;DHT22;21086;44.780;17.194;2022-11-15T03:40:09;9.30;99.90
34877;DHT22;21086;44.780;17.194;2022-11-15T03:42:44;9.30;99.90
34877;DHT22;21086;44.780;17.194;2022-11-15T03:47:53;9.30;99.90
34877;DHT22;21086;44.780;17.194;2022-11-15T03:50:22;9.40;99.90
34877;DHT22;21086;44.780;17.194;2022-11-15T03:52:50;9.40;99.90
34877;DHT22;21086;44.780;17.194;2022-11-15T03:55:19;9.50;99.90
34877;DHT22;21086;44.780;17.194;2022-11-15T03:57:50;9.60;99.90
34877;DHT22;21086;44.780;17.194;2022-11-15T04:00:17;9.70;99.90
34877;DHT22;21086;44.780;17.194;2022-11-15T04:02:44;9.70;99.90
34877;DHT22;21086;44.780;17.194;2022-11-15T04:05:11;9.60;99.90
34877;DHT22;21086;44.780;17.194;2022-11-15T04:07:38;9.60;99.90
34877;DHT22;21086;44.780;17.194;2022-11-15T04:10:06;9.70;99.90
34877;DHT22;21086;44.780;17.194;2022-11-15T04:12:35;9.80;99.90
34877;DHT22;21086;44.780;17.194;2022-11-15T04:15:07;9.80;99.90
34877;DHT22;21086;44.780;17.194;2022-11-15T04:17:44;9.70;99.90
34877;DHT22;21086;44.780;17.194;2022-11-15T04:23:08;9.60;99.90
34877;DHT22;21086;44.780;17.194;2022-11-15T04:25:59;9.50;99.90
34877;DHT22;21086;44.780;17.194;2022-11-15T04:28:27;9.50;99.90
34877;DHT22;21086;44.780;17.194;2022-11-15T04:30:54;9.50;99.90
34877;DHT22;21086;44.780;17.194;2022-11-15T04:33:22;9.50;99.90
34877;DHT22;21086;44.780;17.194;2022-11-15T04:35:49;9.50;99.90
34877;DHT22;21086;44.780;17.194;2022-11-15T04:38:35;9.50;99.90
34877;DHT22;21086;44.780;17.194;2022-11-15T04:41:03;9.60;99.90
34877;DHT22;21086;44.780;17.194;2022-11-15T04:43:30;9.60;99.90
34877;DHT22;21086;44.780;17.194;2022-11-15T04:45:58;9.60;99.90
34877;DHT22;21086;44.780;17.194;2022-11-15T04:48:25;9.40;99.90
34877;DHT22;21086;44.780;17.194;2022-11-15T04:50:52;9.40;99.90
34877;DHT22;21086;44.780;17.194;2022-11-15T04:53:19;9.30;99.90
34877;DHT22;21086;44.780;17.194;2022-11-15T04:55:46;9.40;99.90
34877;DHT22;21086;44.780;17.194;2022-11-15T04:58:14;9.20;99.90
34877;DHT22;21086;44.780;17.194;2022-11-15T05:00:40;9.30;99.90
34877;DHT22;21086;44.780;17.194;2022-11-15T05:03:09;9.30;99.90
34877;DHT22;21086;44.780;17.194;2022-11-15T05:05:55;9.30;99.90
34877;DHT22;21086;44.780;17.194;2022-11-15T05:08:22;9.40;99.90
34877;DHT22;21086;44.780;17.194;2022-11-15T05:10:49;9.50;99.90
34877;DHT22;21086;44.780;17.194;2022-11-15T05:13:16;9.50;99.90
34877;DHT22;21086;44.780;17.194;2022-11-15T05:15:43;9.50;99.90
34877;DHT22;21086;44.780;17.194;2022-11-15T05:18:11;9.50;99.90
34877;DHT22;21086;44.780;17.194;2022-11-15T05:20:38;9.60;99.90
34877;DHT22;21086;44.780;17.194;2022-11-15T05:23:05;9.60;99.90
34877;DHT22;21086;44.780;17.194;2022-11-15T05:25:33;9.70;99.90
34877;DHT22;21086;44.780;17.194;2022-11-15T05:28:03;9.90;99.90
34877;DHT22;21086;44.780;17.194;2022-11-15T05:30:30;9.80;99.90
34877;DHT22;21086;44.780;17.194;2022-11-15T05:32:56;9.80;99.90
34877;DHT22;21086;44.780;17.194;2022-11-15T05:35:34;9.70;99.90
34877;DHT22;21086;44.780;17.194;2022-11-15T05:38:04;9.70;99.90
34877;DHT22;21086;44.780;17.194;2022-11-15T05:40:31;9.70;99.90
34877;DHT22;21086;44.780;17.194;2022-11-15T05:43:00;9.70;99.90
34877;DHT22;21086;44.780;17.194;2022-11-15T05:45:29;9.70;99.90
34877;DHT22;21086;44.780;17.194;2022-11-15T05:47:58;9.60;99.90
34877;DHT22;21086;44.780;17.194;2022-11-15T05:50:26;9.50;99.90
34877;DHT22;21086;44.780;17.194;2022-11-15T05:52:54;9.50;99.90
34877;DHT22;21086;44.780;17.194;2022-11-15T05:55:25;9.50;99.90
34877;DHT22;21086;44.780;17.194;2022-11-15T05:57:52;9.50;99.90
34877;DHT22;21086;44.780;17.194;2022-11-15T06:00:19;9.50;99.90
34877;DHT22;21086;44.780;17.194;2022-11-15T06:02:46;9.40;99.90
34877;DHT22;21086;44.780;17.194;2022-11-15T06:05:13;9.40;99.90
34877;DHT22;21086;44.780;17.194;2022-11-15T06:07:40;9.30;99.90
34877;DHT22;21086;44.780;17.194;2022-11-15T06:10:07;9.30;99.90
34877;DHT22;21086;44.780;17.194;2022-11-15T06:12:34;9.30;99.90
34877;DHT22;21086;44.780;17.194;2022-11-15T06:15:01;9.30;99.90
34877;DHT22;21086;44.780;17.194;2022-11-15T06:17:28;9.30;99.90
34877;DHT22;21086;44.780;17.194;2022-11-15T06:19:56;9.50;99.90
34877;DHT22;21086;44.780;17.194;2022-11-15T06:22:23;9.60;99.90
34877;DHT22;21086;44.780;17.194;2022-11-15T06:24:50;9.60;99.90
34877;DHT22;21086;44.780;17.194;2022-11-15T06:27:17;9.60;99.90
34877;DHT22;21086;44.780;17.194;2022-11-15T06:29:43;9.80;99.90
34877;DHT22;21086;44.780;17.194;2022-11-15T06:32:10;9.80;99.90
34877;DHT22;21086;44.780;17.194;2022-11-15T06:34:37;9.70;99.90
34877;DHT22;21086;44.780;17.194;2022-11-15T06:37:04;9.80;99.90
34877;DHT22;21086;44.780;17.194;2022-11-15T06:39:31;10.00;99.90
34877;DHT22;21086;44.780;17.194;2022-11-15T06:41:58;10.00;99.90
34877;DHT22;21086;44.780;17.194;2022-11-15T06:44:25;10.00;99.90
34877;DHT22;21086;44.780;17.194;2022-11-15T06:46:52;10.10;99.90
34877;DHT22;21086;44.780;17.194;2022-11-15T06:49:19;10.00;99.90
34877;DHT22;21086;44.780;17.194;2022-11-15T06:51:46;10.00;99.90
34877;DHT22;21086;44.780;17.194;2022-11-15T06:54:12;10.10;99.90
34877;DHT22;21086;44.780;17.194;2022-11-15T06:56:40;10.10;99.90
34877;DHT22;21086;44.780;17.194;2022-11-15T06:59:07;10.20;99.90
34877;DHT22;21086;44.780;17.194;2022-11-15T07:01:34;10.30;99.90
34877;DHT22;21086;44.780;17.194;2022-11-15T07:04:01;10.30;99.90
34877;DHT22;21086;44.780;17.194;2022-11-15T07:06:28;10.30;99.90
34877;DHT22;21086;44.780;17.194;2022-11-15T07:08:55;10.40;99.90
34877;DHT22;21086;44.780;17.194;2022-11-15T07:11:22;10.30;99.90
34877;DHT22;21086;44.780;17.194;2022-11-15T07:13:48;10.30;99.90
34877;DHT22;21086;44.780;17.194;2022-11-15T07:16:15;10.40;99.90
34877;DHT22;21086;44.780;17.194;2022-11-15T07:18:43;10.40;99.90
34877;DHT22;21086;44.780;17.194;2022-11-15T07:21:10;10.40;99.90
34877;DHT22;21086;44.780;17.194;2022-11-15T07:23:38;10.40;99.90
34877;DHT22;21086;44.780;17.194;2022-11-15T07:26:07;10.60;99.90
34877;DHT22;21086;44.780;17.194;2022-11-15T07:28:35;10.50;99.90
34877;DHT22;21086;44.780;17.194;2022-11-15T07:31:04;10.50;99.90
34877;DHT22;21086;44.780;17.194;2022-11-15T07:33:31;10.70;99.90
34877;DHT22;21086;44.780;17.194;2022-11-15T07:36:00;10.60;99.90
34877;DHT22;21086;44.780;17.194;2022-11-15T07:38:28;10.60;99.90
34877;DHT22;21086;44.780;17.194;2022-11-15T07:41:00;10.60;99.90
34877;DHT22;21086;44.780;17.194;2022-11-15T07:43:28;10.60;99.90
34877;DHT22;21086;44.780;17.194;2022-11-15T07:45:56;10.70;99.90
34877;DHT22;21086;44.780;17.194;2022-11-15T07:48:25;10.70;99.90
34877;DHT22;21086;44.780;17.194;2022-11-15T07:51:11;10.60;99.90
34877;DHT22;21086;44.780;17.194;2022-11-15T07:53:41;9.50;99.90
34877;DHT22;21086;44.780;17.194;2022-11-15T08:31:21;11.20;99.90
34877;DHT22;21086;44.780;17.194;2022-11-15T08:33:49;10.10;99.90
34877;DHT22;21086;44.780;17.194;2022-11-15T08:39:09;11.60;99.90
34877;DHT22;21086;44.780;17.194;2022-11-15T08:41:37;11.40;99.90
34877;DHT22;21086;44.780;17.194;2022-11-15T08:46:40;11.60;99.90
34877;DHT22;21086;44.780;17.194;2022-11-15T08:49:08;11.30;99.90
34877;DHT22;21086;44.780;17.194;2022-11-15T08:56:55;11.70;99.90
34877;DHT22;21086;44.780;17.194;2022-11-15T08:59:22;10.40;99.90
34877;DHT22;21086;44.780;17.194;2022-11-15T09:01:50;10.30;99.90
34877;DHT22;21086;44.780;17.194;2022-11-15T09:04:17;10.70;99.90
34877;DHT22;21086;44.780;17.194;2022-11-15T09:06:45;10.90;99.90
34877;DHT22;21086;44.780;17.194;2022-11-15T09:11:48;11.30;99.90
34877;DHT22;21086;44.780;17.194;2022-11-15T09:17:44;11.60;99.90
34877;DHT22;21086;44.780;17.194;2022-11-15T09:20:12;12.50;99.90
34877;DHT22;21086;44.780;17.194;2022-11-15T09:22:44;10.40;99.90
34877;DHT22;21086;44.780;17.194;2022-11-15T09:25:16;11.60;99.90
34877;DHT22;21086;44.780;17.194;2022-11-15T09:49:30;12.30;99.90
34877;DHT22;21086;44.780;17.194;2022-11-15T09:51:58;11.00;99.90
34877;DHT22;21086;44.780;17.194;2022-11-15T09:54:43;11.80;99.90
34877;DHT22;21086;44.780;17.194;2022-11-15T10:08:35;12.80;99.90
34877;DHT22;21086;44.780;17.194;2022-11-15T10:11:22;12.10;99.90
34877;DHT22;21086;44.780;17.194;2022-11-15T10:14:21;12.90;99.90
34877;DHT22;21086;44.780;17.194;2022-11-15T10:17:14;12.80;99.90
34877;DHT22;21086;44.780;17.194;2022-11-15T10:20:13;12.00;99.90
34877;DHT22;21086;44.780;17.194;2022-11-15T10:22:47;12.00;99.90
34877;DHT22;21086;44.780;17.194;2022-11-15T10:25:24;13.70;99.90
34877;DHT22;21086;44.780;17.194;2022-11-15T10:28:09;12.80;99.90
34877;DHT22;21086;44.780;17.194;2022-11-15T10:30:40;13.50;99.90
34877;DHT22;21086;44.780;17.194;2022-11-15T10:33:25;13.50;99.90
34877;DHT22;21086;44.780;17.194;2022-11-15T10:36:20;12.60;99.90
34877;DHT22;21086;44.780;17.194;2022-11-15T10:46:41;13.90;99.90
34877;DHT22;21086;44.780;17.194;2022-11-15T10:49:26;14.30;99.90
34877;DHT22;21086;44.780;17.194;2022-11-15T10:54:31;13.60;99.90
34877;DHT22;21086;44.780;17.194;2022-11-15T10:57:06;14.10;99.90
34877;DHT22;21086;44.780;17.194;2022-11-15T10:59:36;15.10;99.90
34877;DHT22;21086;44.780;17.194;2022-11-15T11:02:28;13.80;99.90
34877;DHT22;21086;44.780;17.194;2022-11-15T11:04:56;14.80;99.90
34877;DHT22;21086;44.780;17.194;2022-11-15T11:07:30;13.60;99.90
34877;DHT22;21086;44.780;17.194;2022-11-15T11:10:19;14.00;99.90
34877;DHT22;21086;44.780;17.194;2022-11-15T11:13:25;15.60;99.90
34877;DHT22;21086;44.780;17.194;2022-11-15T11:18:31;17.30;99.90
34877;DHT22;21086;44.780;17.194;2022-11-15T11:21:18;20.40;99.90
34877;DHT22;21086;44.780;17.194;2022-11-15T11:23:54;22.30;99.90
34877;DHT22;21086;44.780;17.194;2022-11-15T11:32:32;21.00;99.90
34877;DHT22;21086;44.780;17.194;2022-11-15T11:35:28;20.50;99.90
34877;DHT22;21086;44.780;17.194;2022-11-15T11:40:29;20.10;99.90
34877;DHT22;21086;44.780;17.194;2022-11-15T11:43:16;19.80;99.90
34877;DHT22;21086;44.780;17.194;2022-11-15T11:46:47;19.40;99.90
34877;DHT22;21086;44.780;17.194;2022-11-15T11:49:04;19.10;99.90
34877;DHT22;21086;44.780;17.194;2022-11-15T11:51:42;18.70;99.90
34877;DHT22;21086;44.780;17.194;2022-11-15T11:54:14;18.20;99.90
34877;DHT22;21086;44.780;17.194;2022-11-15T11:56:44;18.90;99.90
34877;DHT22;21086;44.780;17.194;2022-11-15T11:59:39;20.00;99.90
34877;DHT22;21086;44.780;17.194;2022-11-15T12:05:01;23.90;99.90
34877;DHT22;21086;44.780;17.194;2022-11-15T12:07:33;25.60;99.90
34877;DHT22;21086;44.780;17.194;2022-11-15T12:13:22;28.30;99.90
34877;DHT22;21086;44.780;17.194;2022-11-15T12:16:06;29.30;99.90
34877;DHT22;21086;44.780;17.194;2022-11-15T12:18:36;29.50;99.90
34877;DHT22;21086;44.780;17.194;2022-11-15T12:21:16;30.40;99.90
34877;DHT22;21086;44.780;17.194;2022-11-15T12:23:58;30.40;99.90
34877;DHT22;21086;44.780;17.194;2022-11-15T12:26:32;30.90;99.90
34877;DHT22;21086;44.780;17.194;2022-11-15T12:29:03;31.20;99.90
34877;DHT22;21086;44.780;17.194;2022-11-15T12:36:48;31.00;99.90
34877;DHT22;21086;44.780;17.194;2022-11-15T12:39:16;30.20;99.90
34877;DHT22;21086;44.780;17.194;2022-11-15T12:59:58;27.70;99.90
34877;DHT22;21086;44.780;17.194;2022-11-15T13:02:35;26.50;99.90
34877;DHT22;21086;44.780;17.194;2022-11-15T13:08:02;23.90;99.90
34877;DHT22;21086;44.780;17.194;2022-11-15T13:10:32;23.00;99.90
34877;DHT22;21086;44.780;17.194;2022-11-15T13:13:09;22.30;99.90
34877;DHT22;21086;44.780;17.194;2022-11-15T13:20:50;22.10;99.90
34877;DHT22;21086;44.780;17.194;2022-11-15T13:23:17;22.10;99.90
34877;DHT22;21086;44.780;17.194;2022-11-15T13:28:32;23.10;99.90
34877;DHT22;21086;44.780;17.194;2022-11-15T13:33:58;23.60;99.90
34877;DHT22;21086;44.780;17.194;2022-11-15T13:36:31;23.10;99.90
34877;DHT22;21086;44.780;17.194;2022-11-15T13:41:51;21.40;99.90
34877;DHT22;21086;44.780;17.194;2022-11-15T13:44:26;20.60;99.90
34877;DHT22;21086;44.780;17.194;2022-11-15T13:47:13;20.00;99.90
34877;DHT22;21086;44.780;17.194;2022-11-15T13:49:41;19.40;99.90
34877;DHT22;21086;44.780;17.194;2022-11-15T13:52:12;19.10;99.90
34877;DHT22;21086;44.780;17.194;2022-11-15T13:54:59;19.00;99.90
34877;DHT22;21086;44.780;17.194;2022-11-15T13:57:45;18.60;99.90
34877;DHT22;21086;44.780;17.194;2022-11-15T14:00:41;18.20;99.90
34877;DHT22;21086;44.780;17.194;2022-11-15T14:03:23;17.80;99.90
34877;DHT22;21086;44.780;17.194;2022-11-15T14:06:11;17.60;99.90
34877;DHT22;21086;44.780;17.194;2022-11-15T14:08:57;17.20;99.90
34877;DHT22;21086;44.780;17.194;2022-11-15T14:11:24;16.90;99.90
34877;DHT22;21086;44.780;17.194;2022-11-15T14:19:06;16.40;99.90
34877;DHT22;21086;44.780;17.194;2022-11-15T14:21:33;16.30;99.90
34877;DHT22;21086;44.780;17.194;2022-11-15T14:24:20;16.20;99.90
34877;DHT22;21086;44.780;17.194;2022-11-15T14:26:48;16.10;99.90
34877;DHT22;21086;44.780;17.194;2022-11-15T14:29:25;16.10;99.90
34877;DHT22;21086;44.780;17.194;2022-11-15T14:31:54;16.10;99.90
34877;DHT22;21086;44.780;17.194;2022-11-15T14:34:32;15.90;99.90
34877;DHT22;21086;44.780;17.194;2022-11-15T14:36:59;14.80;99.90
34877;DHT22;21086;44.780;17.194;2022-11-15T14:39:26;14.30;99.90
34877;DHT22;21086;44.780;17.194;2022-11-15T14:41:53;15.70;99.90
34877;DHT22;21086;44.780;17.194;2022-11-15T14:44:20;15.70;99.90
34877;DHT22;21086;44.780;17.194;2022-11-15T14:46:48;15.60;99.90
34877;DHT22;21086;44.780;17.194;2022-11-15T14:49:15;15.50;99.90
34877;DHT22;21086;44.780;17.194;2022-11-15T14:51:43;14.60;99.90
34877;DHT22;21086;44.780;17.194;2022-11-15T14:54:10;14.50;99.90
34877;DHT22;21086;44.780;17.194;2022-11-15T14:56:37;14.90;99.90
34877;DHT22;21086;44.780;17.194;2022-11-15T14:59:05;15.40;99.90
34877;DHT22;21086;44.780;17.194;2022-11-15T15:01:32;14.20;99.90
34877;DHT22;21086;44.780;17.194;2022-11-15T15:04:00;15.10;99.90
34877;DHT22;21086;44.780;17.194;2022-11-15T15:06:27;14.90;99.90
34877;DHT22;21086;44.780;17.194;2022-11-15T15:08:54;15.90;99.90
34877;DHT22;21086;44.780;17.194;2022-11-15T15:11:24;14.00;99.90
34877;DHT22;21086;44.780;17.194;2022-11-15T15:16:27;14.70;99.90
34877;DHT22;21086;44.780;17.194;2022-11-15T15:18:58;14.50;99.90
34877;DHT22;21086;44.780;17.194;2022-11-15T15:47:50;13.60;99.90
34877;DHT22;21086;44.780;17.194;2022-11-15T15:50:27;13.40;99.90
34877;DHT22;21086;44.780;17.194;2022-11-15T15:52:57;13.30;99.90
34877;DHT22;21086;44.780;17.194;2022-11-15T15:55:25;13.40;99.90
34877;DHT22;21086;44.780;17.194;2022-11-15T15:57:52;13.30;99.90
34877;DHT22;21086;44.780;17.194;2022-11-15T16:00:19;13.30;99.90
34877;DHT22;21086;44.780;17.194;2022-11-15T16:02:47;13.10;99.90
34877;DHT22;21086;44.780;17.194;2022-11-15T16:05:14;13.10;99.90
34877;DHT22;21086;44.780;17.194;2022-11-15T16:07:41;13.10;99.90
34877;DHT22;21086;44.780;17.194;2022-11-15T16:10:33;13.10;99.90
34877;DHT22;21086;44.780;17.194;2022-11-15T16:13:04;12.90;99.90
34877;DHT22;21086;44.780;17.194;2022-11-15T16:15:31;12.90;99.90
34877;DHT22;21086;44.780;17.194;2022-11-15T16:18:00;12.90;99.90
34877;DHT22;21086;44.780;17.194;2022-11-15T16:20:37;12.80;99.90
34877;DHT22;21086;44.780;17.194;2022-11-15T16:23:07;12.70;99.90
34877;DHT22;21086;44.780;17.194;2022-11-15T16:25:47;12.70;99.90
34877;DHT22;21086;44.780;17.194;2022-11-15T16:28:28;12.70;99.90
34877;DHT22;21086;44.780;17.194;2022-11-15T16:31:05;12.60;99.90
34877;DHT22;21086;44.780;17.194;2022-11-15T16:33:32;12.60;99.90
34877;DHT22;21086;44.780;17.194;2022-11-15T16:36:00;12.60;99.90
34877;DHT22;21086;44.780;17.194;2022-11-15T16:38:27;12.50;99.90
34877;DHT22;21086;44.780;17.194;2022-11-15T16:40:54;12.50;99.90
34877;DHT22;21086;44.780;17.194;2022-11-15T16:43:27;12.40;99.90
34877;DHT22;21086;44.780;17.194;2022-11-15T16:46:20;14.20;99.90
34877;DHT22;21086;44.780;17.194;2022-11-15T16:49:03;10.30;99.90
34877;DHT22;21086;44.780;17.194;2022-11-15T16:51:30;12.20;99.90
34877;DHT22;21086;44.780;17.194;2022-11-15T16:54:04;10.50;99.90
34877;DHT22;21086;44.780;17.194;2022-11-15T16:56:38;10.50;99.90
34877;DHT22;21086;44.780;17.194;2022-11-15T16:59:14;12.20;99.90
34877;DHT22;21086;44.780;17.194;2022-11-15T17:01:42;11.90;99.90
34877;DHT22;21086;44.780;17.194;2022-11-15T17:04:20;10.50;99.90
34877;DHT22;21086;44.780;17.194;2022-11-15T17:06:48;10.00;99.90
34877;DHT22;21086;44.780;17.194;2022-11-15T17:09:18;11.10;99.90
34877;DHT22;21086;44.780;17.194;2022-11-15T17:11:45;10.60;99.90
34877;DHT22;21086;44.780;17.194;2022-11-15T17:21:59;11.60;99.90
34877;DHT22;21086;44.780;17.194;2022-11-15T17:24:27;11.60;99.90
34877;DHT22;21086;44.780;17.194;2022-11-15T17:26:54;11.60;99.90
34877;DHT22;21086;44.780;17.194;2022-11-15T17:29:21;9.90;99.90
34877;DHT22;21086;44.780;17.194;2022-11-15T17:34:24;11.40;99.90
34877;DHT22;21086;44.780;17.194;2022-11-15T17:36:52;11.40;99.90
34877;DHT22;21086;44.780;17.194;2022-11-15T17:39:19;10.70;99.90
34877;DHT22;21086;44.780;17.194;2022-11-15T17:41:49;11.10;99.90
34877;DHT22;21086;44.780;17.194;2022-11-15T17:44:17;12.40;99.90
34877;DHT22;21086;44.780;17.194;2022-11-15T17:46:44;12.90;99.90
34877;DHT22;21086;44.780;17.194;2022-11-15T17:49:11;11.20;99.90
34877;DHT22;21086;44.780;17.194;2022-11-15T17:51:39;10.90;99.90
34877;DHT22;21086;44.780;17.194;2022-11-15T17:54:10;11.20;99.90
34877;DHT22;21086;44.780;17.194;2022-11-15T17:56:41;10.70;99.90
34877;DHT22;21086;44.780;17.194;2022-11-15T17:59:09;11.20;99.90
34877;DHT22;21086;44.780;17.194;2022-11-15T18:01:43;10.20;99.90
34877;DHT22;21086;44.780;17.194;2022-11-15T18:04:10;11.00;99.90
34877;DHT22;21086;44.780;17.194;2022-11-15T18:06:41;11.40;99.90
34877;DHT22;21086;44.780;17.194;2022-11-15T18:09:08;11.50;99.90
34877;DHT22;21086;44.780;17.194;2022-11-15T18:11:38;11.50;99.90
34877;DHT22;21086;44.780;17.194;2022-11-15T18:14:12;11.10;99.90
34877;DHT22;21086;44.780;17.194;2022-11-15T18:16:41;11.60;99.90
34877;DHT22;21086;44.780;17.194;2022-11-15T18:19:08;10.00;99.90
34877;DHT22;21086;44.780;17.194;2022-11-15T18:21:40;10.20;99.90
34877;DHT22;21086;44.780;17.194;2022-11-15T18:24:28;11.30;99.90
34877;DHT22;21086;44.780;17.194;2022-11-15T18:26:56;11.50;99.90
34877;DHT22;21086;44.780;17.194;2022-11-15T18:29:26;10.20;99.90
34877;DHT22;21086;44.780;17.194;2022-11-15T18:31:55;12.80;99.90
34877;DHT22;21086;44.780;17.194;2022-11-15T18:34:24;9.70;99.90
34877;DHT22;21086;44.780;17.194;2022-11-15T18:36:52;11.60;99.90
34877;DHT22;21086;44.780;17.194;2022-11-15T18:39:19;11.60;99.90
34877;DHT22;21086;44.780;17.194;2022-11-15T18:41:48;11.60;99.90
34877;DHT22;21086;44.780;17.194;2022-11-15T19:05:07;11.60;99.90
34877;DHT22;21086;44.780;17.194;2022-11-15T22:03:01;10.70;99.90
34877;DHT22;21086;44.780;17.194;2022-11-15T22:05:28;9.40;99.90
34877;DHT22;21086;44.780;17.194;2022-11-15T22:07:55;10.80;99.90
34877;DHT22;21086;44.780;17.194;2022-11-15T22:10:22;10.80;99.90
34877;DHT22;21086;44.780;17.194;2022-11-15T22:12:49;10.80;99.90
34877;DHT22;21086;44.780;17.194;2022-11-15T22:15:16;10.80;99.90
34877;DHT22;21086;44.780;17.194;2022-11-15T22:17:43;10.80;99.90
34877;DHT22;21086;44.780;17.194;2022-11-15T22:20:26;10.80;99.90
34877;DHT22;21086;44.780;17.194;2022-11-15T22:23:10;10.90;99.90
34877;DHT22;21086;44.780;17.194;2022-11-15T22:25:37;11.00;99.90
34877;DHT22;21086;44.780;17.194;2022-11-15T22:28:04;11.00;99.90
34877;DHT22;21086;44.780;17.194;2022-11-15T22:30:31;11.00;99.90
34877;DHT22;21086;44.780;17.194;2022-11-15T22:32:58;11.10;99.90
34877;DHT22;21086;44.780;17.194;2022-11-15T22:35:25;11.10;99.90
34877;DHT22;21086;44.780;17.194;2022-11-15T22:37:52;11.00;99.90
34877;DHT22;21086;44.780;17.194;2022-11-15T22:40:19;11.00;99.90
34877;DHT22;21086;44.780;17.194;2022-11-15T22:42:45;11.00;99.90
34877;DHT22;21086;44.780;17.194;2022-11-15T22:45:12;11.00;99.90
34877;DHT22;21086;44.780;17.194;2022-11-15T22:47:39;11.00;99.90
34877;DHT22;21086;44.780;17.194;2022-11-15T22:50:06;11.00;99.90
34877;DHT22;21086;44.780;17.194;2022-11-15T22:52:35;11.10;99.90
34877;DHT22;21086;44.780;17.194;2022-11-15T22:55:02;11.10;99.90
34877;DHT22;21086;44.780;17.194;2022-11-15T22:57:33;11.10;99.90
34877;DHT22;21086;44.780;17.194;2022-11-15T22:59:59;11.10;99.90
34877;DHT22;21086;44.780;17.194;2022-11-15T23:02:26;11.10;99.90